Gaia — PC4584 — position and weather

sailwx.info

Track history (hours):
 
Tides and Currents Weather Stations Pressure Air Temp Water Temp Dewpoint Dewpoint Depression Visibility Wind Speed Wind Dir Waves Ship Positions

Gaia

Last reported at 2016-Jul-24 14:33 UTC. Time now 2016-Jul-24 14:46 UTC.
Position N 54°24' E 010°13'.

Length 12 m.

Type: Sailing vessel. MMSI: 244615031.

Date/timePositionNaut miles runAvg speedWind from/ knotsBaromVisibWave heightAir tempDewpointWater temp
2016-Jul-24 14:33N 54°24' E 010°13'0 0.0
2016-Jul-24 13:33N 54°24' E 010°13'0 0.0
2016-Jul-24 12:33N 54°24' E 010°13'0 0.0
2016-Jul-24 11:33N 54°24' E 010°13'0 0.0
2016-Jul-24 10:33N 54°24' E 010°13'0 0.0
2016-Jul-24 09:33N 54°24' E 010°13'0 0.1
2016-Jul-24 08:29N 54°24' E 010°13'0 0.0
2016-Jul-24 00:14N 54°24' E 010°13'0 0.0
2016-Jul-23 22:32N 54°24' E 010°13'0 0.0
2016-Jul-23 21:32N 54°24' E 010°13'0 0.0
2016-Jul-23 20:32N 54°24' E 010°13'0 0.0
2016-Jul-23 19:29N 54°24' E 010°13'0 0.0
2016-Jul-23 18:32N 54°24' E 010°13'1 0.9
2016-Jul-23 17:34N 54°23' E 010°12'2 2.1
2016-Jul-23 16:22N 54°22' E 010°08'0 0.2
2016-Jul-23 15:29N 54°22' E 010°08'0 0.0
2016-Jul-23 14:33N 54°22' E 010°08'6 5.6
2016-Jul-23 13:32N 54°21' E 009°58'28 5.4
2016-Jul-23 08:16N 54°04' E 009°19'5 6.3
2016-Jul-23 07:33N 53°60' E 009°17'6 6.1
2016-Jul-23 06:34N 53°55' E 009°11'2 0.8
2016-Jul-23 04:19N 53°54' E 009°09'0 0.0
2016-Jul-23 03:31N 53°54' E 009°09'0 0.0
2016-Jul-23 02:31N 53°54' E 009°09'0 0.0
2016-Jul-23 01:33N 53°54' E 009°09'0 0.0
2016-Jul-23 00:31N 53°54' E 009°09'0 0.0
2016-Jul-22 23:33N 53°54' E 009°09'0 0.0
2016-Jul-22 22:30N 53°54' E 009°09'0 0.0
2016-Jul-22 21:30N 53°54' E 009°09'0 0.0
2016-Jul-22 20:12N 53°54' E 009°09'0 0.0
2016-Jul-22 19:33N 53°54' E 009°09'0 0.0
2016-Jul-22 18:33N 53°54' E 009°09'0 0.0
2016-Jul-22 17:33N 53°54' E 009°09'0 0.0
2016-Jul-22 16:33N 53°54' E 009°09'0 0.0
2016-Jul-22 15:30N 53°54' E 009°09'0 0.0
2016-Jul-22 14:27N 53°54' E 009°09'0 0.2
2016-Jul-22 13:33N 53°54' E 009°09'7 7.1
2016-Jul-22 12:33N 53°51' E 008°58'8 8.1
2016-Jul-22 11:32N 53°52' E 008°44'9 8.4
2016-Jul-22 10:30N 53°58' E 008°33'8 7.5
2016-Jul-22 09:29N 53°59' E 008°21'7 7.3
2016-Jul-22 08:33N 53°58' E 008°09'8 7.5
2016-Jul-22 07:31N 53°57' E 007°56'17 5.6
2016-Jul-22 04:32N 53°51' E 007°30'5 5.3
2016-Jul-22 03:33N 53°50' E 007°21'6 5.5
2016-Jul-22 02:33N 53°48' E 007°12'6 5.6
2016-Jul-22 01:33N 53°47' E 007°03'6 5.7
2016-Jul-22 00:33N 53°45' E 006°54'6 6.2
2016-Jul-21 23:33N 53°43' E 006°44'7 6.8
2016-Jul-21 22:33N 53°41' E 006°33'7 7.1
2016-Jul-21 21:32N 53°39' E 006°21'7 7.2
2016-Jul-21 20:33N 53°37' E 006°10'7 7.2
2016-Jul-21 19:33N 53°35' E 005°59'7 6.5
2016-Jul-21 18:33N 53°32' E 005°48'6 6.1
2016-Jul-21 17:33N 53°31' E 005°38'6 6.3
2016-Jul-21 16:33N 53°30' E 005°28'4 4.5
2016-Jul-21 15:33N 53°28' E 005°21'5 4.4
2016-Jul-21 14:28N 53°27' E 005°13'4 4.6
2016-Jul-21 13:33N 53°25' E 005°07'4 4.1
2016-Jul-21 12:32N 53°23' E 005°01'4 3.4
2016-Jul-21 11:19N 53°19' E 005°04'4 5.7
2016-Jul-21 10:33N 53°16' E 005°10'5 5.3
2016-Jul-21 09:33N 53°13' E 005°18'5 4.8
2016-Jul-21 08:33N 53°11' E 005°24'1 0.5
2016-Jul-21 07:32N 53°11' E 005°25'0 0.0
2016-Jul-21 06:32N 53°11' E 005°25'0 0.0
2016-Jul-21 05:32N 53°11' E 005°25'0 0.0
2016-Jul-21 04:32N 53°11' E 005°25'0 0.0
2016-Jul-21 03:32N 53°11' E 005°25'0 0.0
2016-Jul-21 02:32N 53°11' E 005°25'0 0.0
2016-Jul-21 01:32N 53°11' E 005°25'0 0.0
2016-Jul-21 00:32N 53°11' E 005°25'0 0.0
2016-Jul-20 23:32N 53°11' E 005°25'0 0.0
2016-Jul-20 22:32N 53°11' E 005°25'0 0.0
2016-Jul-20 21:32N 53°11' E 005°25'0 0.0
2016-Jul-20 20:32N 53°11' E 005°25'0 0.0
2016-Jul-20 19:32N 53°11' E 005°25'0 0.0
2016-Jul-20 18:32N 53°11' E 005°25'0 0.0
2016-Jul-20 17:32N 53°11' E 005°25'0 0.0
2016-Jul-20 16:32N 53°11' E 005°25'0 0.0
2016-Jul-20 15:32N 53°11' E 005°25'0 0.0
2016-Jul-20 14:32N 53°11' E 005°25'0 0.0
2016-Jul-20 13:32N 53°11' E 005°25'0 0.0
2016-Jul-20 12:32N 53°11' E 005°25'1 1.3
2016-Jul-20 11:33N 53°10' E 005°23'5 5.2
2016-Jul-20 10:32N 53°05' E 005°20'1 0.7
2016-Jul-20 09:31N 53°04' E 005°20'1 1.2
2016-Jul-20 08:33N 53°03' E 005°21'5 5.1
2016-Jul-20 07:30N 52°58' E 005°21'5 5.2
2016-Jul-20 06:34N 52°53' E 005°21'0 0.1
2016-Jul-20 05:31N 52°53' E 005°21'0 0.0
2016-Jul-20 04:28N 52°53' E 005°21'0 0.0
2016-Jul-20 03:32N 52°53' E 005°21'0 0.0
2016-Jul-20 02:33N 52°53' E 005°21'0 0.0
2016-Jul-20 01:30N 52°53' E 005°21'0 0.0
2016-Jul-20 00:33N 52°53' E 005°21'0 0.0
2016-Jul-19 23:31N 52°53' E 005°21'0 0.0
2016-Jul-19 22:31N 52°53' E 005°21'0 0.0
2016-Jul-19 21:28N 52°53' E 005°21'0 0.0
2016-Jul-19 20:31N 52°53' E 005°21'0 0.0
2016-Jul-19 19:31N 52°53' E 005°21'0 0.0
2016-Jul-19 18:31N 52°53' E 005°21'0 0.0
2016-Jul-19 17:31N 52°53' E 005°21'2 2.0
2016-Jul-19 16:33N 52°51' E 005°20'4 4.3
2016-Jul-19 15:33N 52°49' E 005°26'5 5.5
2016-Jul-19 14:33N 52°49' E 005°35'4 3.7
2016-Jul-19 13:33N 52°51' E 005°41'0 0.5
2016-Jul-19 12:33N 52°52' E 005°41'1 0.5
2016-Jul-19 11:31N 52°51' E 005°41'0 0.0
2016-Jul-19 10:16N 52°51' E 005°41'0 0.0
2016-Jul-19 09:25N 52°51' E 005°41'0 0.0
2016-Jul-19 08:10N 52°51' E 005°41'0 0.0
2016-Jul-19 07:25N 52°51' E 005°41'0 0.0
2016-Jul-19 04:25N 52°51' E 005°41'0 0.0
2016-Jul-19 03:31N 52°51' E 005°41'0 0.0
2016-Jul-19 02:31N 52°51' E 005°41'0 0.0
2016-Jul-19 01:31N 52°51' E 005°41'0 0.0
2016-Jul-19 00:31N 52°51' E 005°41'0 0.0
2016-Jul-18 23:28N 52°51' E 005°41'0 0.0
2016-Jul-18 22:31N 52°51' E 005°41'0 0.0
2016-Jul-18 21:22N 52°51' E 005°41'0 0.0
2016-Jul-18 19:19N 52°51' E 005°41'0 0.0
2016-Jul-18 18:22N 52°51' E 005°41'0 0.0
2016-Jul-18 17:22N 52°51' E 005°41'0 0.0
2016-Jul-18 16:34N 52°51' E 005°41'0 0.0
2016-Jul-18 15:34N 52°51' E 005°41'0 0.0
2016-Jul-18 14:34N 52°51' E 005°41'0 0.0
2016-Jul-18 13:34N 52°51' E 005°41'0 0.0
2016-Jul-18 12:22N 52°51' E 005°41'0 0.0
2016-Jul-18 09:27N 52°51' E 005°41'0 0.0
2016-Jul-18 08:33N 52°51' E 005°41'0 0.0
2016-Jul-18 07:18N 52°51' E 005°41'0 0.0
2016-Jul-18 06:24N 52°51' E 005°41'0 0.0
2016-Jul-18 05:27N 52°51' E 005°41'0 0.0
2016-Jul-18 04:27N 52°51' E 005°41'0 0.0
2016-Jul-18 02:27N 52°51' E 005°41'0 0.0
2016-Jul-18 00:12N 52°51' E 005°41'0 0.0
2016-Jul-17 23:33N 52°51' E 005°41'0 0.0
2016-Jul-17 22:33N 52°51' E 005°41'0 0.0
2016-Jul-17 21:27N 52°51' E 005°41'0 0.0
2016-Jul-17 19:27N 52°51' E 005°41'0 0.0
2016-Jul-17 16:27N 52°51' E 005°41'0 0.0
2016-Jul-17 13:21N 52°51' E 005°41'0 0.0
2016-Jul-17 11:33N 52°51' E 005°41'0 0.0
2016-Jul-17 10:15N 52°51' E 005°41'0 0.0
2016-Jul-17 09:06N 52°51' E 005°41'0 0.0
2016-Jul-17 08:09N 52°51' E 005°41'0 0.0
2016-Jul-17 04:15N 52°51' E 005°41'0 0.0
2016-Jul-16 23:27N 52°51' E 005°41'0 0.0
2016-Jul-16 18:27N 52°51' E 005°41'0 0.0
2016-Jul-16 17:15N 52°51' E 005°41'0 0.0
2016-Jul-16 15:27N 52°51' E 005°41'0 0.0
2016-Jul-16 14:33N 52°51' E 005°41'0 0.0
2016-Jul-16 13:21N 52°51' E 005°41'0 0.0
2016-Jul-16 12:27N 52°51' E 005°41'0 0.0
2016-Jul-16 11:33N 52°51' E 005°41'0 0.0
2016-Jul-16 10:33N 52°51' E 005°41'0 0.0
2016-Jul-16 09:15N 52°51' E 005°41'0 0.0
2016-Jul-16 06:21N 52°51' E 005°41'0 0.0
2016-Jul-16 04:33N 52°51' E 005°41'0 0.0
2016-Jul-16 03:03N 52°51' E 005°41'0 0.0
2016-Jul-16 02:33N 52°51' E 005°41'0 0.0
2016-Jul-16 01:27N 52°51' E 005°41'0 0.0
2016-Jul-16 00:27N 52°51' E 005°41'0 0.0
2016-Jul-15 22:09N 52°51' E 005°41'0 0.0
2016-Jul-15 20:33N 52°51' E 005°41'0 0.0
2016-Jul-15 18:27N 52°51' E 005°41'0 0.0
2016-Jul-15 17:15N 52°51' E 005°41'0 0.0
2016-Jul-15 16:09N 52°51' E 005°41'0 0.0
2016-Jul-15 15:09N 52°51' E 005°41'0 0.0
2016-Jul-15 14:33N 52°51' E 005°41'0 0.0
2016-Jul-15 13:30N 52°51' E 005°41'0 0.0
2016-Jul-15 12:21N 52°51' E 005°41'0 0.0
2016-Jul-15 10:27N 52°51' E 005°41'0 0.0
2016-Jul-15 09:27N 52°51' E 005°41'0 0.0
2016-Jul-15 08:27N 52°51' E 005°41'0 0.0
2016-Jul-15 05:33N 52°51' E 005°41'0 0.0
2016-Jul-15 04:27N 52°51' E 005°41'0 0.0
2016-Jul-15 03:33N 52°51' E 005°41'0 0.0
2016-Jul-15 00:21N 52°51' E 005°41'0 0.0
2016-Jul-14 23:33N 52°51' E 005°41'0 0.0
2016-Jul-14 22:33N 52°51' E 005°41'0 0.0
2016-Jul-14 19:21N 52°51' E 005°41'0 0.0
2016-Jul-14 18:27N 52°51' E 005°41'0 0.0
2016-Jul-14 16:12N 52°51' E 005°41'  
Track history (hours):
 
Tides and Currents Weather Stations Pressure Air Temp Water Temp Dewpoint Dewpoint Depression Visibility Wind Speed Wind Dir Waves Ship Positions

Gaia

Last reported at 2016-Jul-24 14:33 UTC. Time now 2016-Jul-24 14:46 UTC.
Position N 54°24' E 010°13'.

Length 12 m.

Type: Sailing vessel. MMSI: 244615031.

Date/timePositionNaut miles runAvg speedWind from/ knotsBaromVisibWave heightAir tempDewpointWater temp
2016-Jul-24 14:33N 54°24' E 010°13'0 0.0
2016-Jul-24 13:33N 54°24' E 010°13'0 0.0
2016-Jul-24 12:33N 54°24' E 010°13'0 0.0
2016-Jul-24 11:33N 54°24' E 010°13'0 0.0
2016-Jul-24 10:33N 54°24' E 010°13'0 0.0
2016-Jul-24 09:33N 54°24' E 010°13'0 0.1
2016-Jul-24 08:29N 54°24' E 010°13'0 0.0
2016-Jul-24 00:14N 54°24' E 010°13'0 0.0
2016-Jul-23 22:32N 54°24' E 010°13'0 0.0
2016-Jul-23 21:32N 54°24' E 010°13'0 0.0
2016-Jul-23 20:32N 54°24' E 010°13'0 0.0
2016-Jul-23 19:29N 54°24' E 010°13'0 0.0
2016-Jul-23 18:32N 54°24' E 010°13'1 0.9
2016-Jul-23 17:34N 54°23' E 010°12'2 2.1
2016-Jul-23 16:22N 54°22' E 010°08'0 0.2
2016-Jul-23 15:29N 54°22' E 010°08'0 0.0
2016-Jul-23 14:33N 54°22' E 010°08'6 5.6
2016-Jul-23 13:32N 54°21' E 009°58'28 5.4
2016-Jul-23 08:16N 54°04' E 009°19'5 6.3
2016-Jul-23 07:33N 53°60' E 009°17'6 6.1
2016-Jul-23 06:34N 53°55' E 009°11'2 0.8
2016-Jul-23 04:19N 53°54' E 009°09'0 0.0
2016-Jul-23 03:31N 53°54' E 009°09'0 0.0
2016-Jul-23 02:31N 53°54' E 009°09'0 0.0
2016-Jul-23 01:33N 53°54' E 009°09'0 0.0
2016-Jul-23 00:31N 53°54' E 009°09'0 0.0
2016-Jul-22 23:33N 53°54' E 009°09'0 0.0
2016-Jul-22 22:30N 53°54' E 009°09'0 0.0
2016-Jul-22 21:30N 53°54' E 009°09'0 0.0
2016-Jul-22 20:12N 53°54' E 009°09'0 0.0
2016-Jul-22 19:33N 53°54' E 009°09'0 0.0
2016-Jul-22 18:33N 53°54' E 009°09'0 0.0
2016-Jul-22 17:33N 53°54' E 009°09'0 0.0
2016-Jul-22 16:33N 53°54' E 009°09'0 0.0
2016-Jul-22 15:30N 53°54' E 009°09'0 0.0
2016-Jul-22 14:27N 53°54' E 009°09'0 0.2
2016-Jul-22 13:33N 53°54' E 009°09'7 7.1
2016-Jul-22 12:33N 53°51' E 008°58'8 8.1
2016-Jul-22 11:32N 53°52' E 008°44'9 8.4
2016-Jul-22 10:30N 53°58' E 008°33'8 7.5
2016-Jul-22 09:29N 53°59' E 008°21'7 7.3
2016-Jul-22 08:33N 53°58' E 008°09'8 7.5
2016-Jul-22 07:31N 53°57' E 007°56'17 5.6
2016-Jul-22 04:32N 53°51' E 007°30'5 5.3
2016-Jul-22 03:33N 53°50' E 007°21'6 5.5
2016-Jul-22 02:33N 53°48' E 007°12'6 5.6
2016-Jul-22 01:33N 53°47' E 007°03'6 5.7
2016-Jul-22 00:33N 53°45' E 006°54'6 6.2
2016-Jul-21 23:33N 53°43' E 006°44'7 6.8
2016-Jul-21 22:33N 53°41' E 006°33'7 7.1
2016-Jul-21 21:32N 53°39' E 006°21'7 7.2
2016-Jul-21 20:33N 53°37' E 006°10'7 7.2
2016-Jul-21 19:33N 53°35' E 005°59'7 6.5
2016-Jul-21 18:33N 53°32' E 005°48'6 6.1
2016-Jul-21 17:33N 53°31' E 005°38'6 6.3
2016-Jul-21 16:33N 53°30' E 005°28'4 4.5
2016-Jul-21 15:33N 53°28' E 005°21'5 4.4
2016-Jul-21 14:28N 53°27' E 005°13'4 4.6
2016-Jul-21 13:33N 53°25' E 005°07'4 4.1
2016-Jul-21 12:32N 53°23' E 005°01'4 3.4
2016-Jul-21 11:19N 53°19' E 005°04'4 5.7
2016-Jul-21 10:33N 53°16' E 005°10'5 5.3
2016-Jul-21 09:33N 53°13' E 005°18'5 4.8
2016-Jul-21 08:33N 53°11' E 005°24'1 0.5
2016-Jul-21 07:32N 53°11' E 005°25'0 0.0
2016-Jul-21 06:32N 53°11' E 005°25'0 0.0
2016-Jul-21 05:32N 53°11' E 005°25'0 0.0
2016-Jul-21 04:32N 53°11' E 005°25'0 0.0
2016-Jul-21 03:32N 53°11' E 005°25'0 0.0
2016-Jul-21 02:32N 53°11' E 005°25'0 0.0
2016-Jul-21 01:32N 53°11' E 005°25'0 0.0
2016-Jul-21 00:32N 53°11' E 005°25'0 0.0
2016-Jul-20 23:32N 53°11' E 005°25'0 0.0
2016-Jul-20 22:32N 53°11' E 005°25'0 0.0
2016-Jul-20 21:32N 53°11' E 005°25'0 0.0
2016-Jul-20 20:32N 53°11' E 005°25'0 0.0
2016-Jul-20 19:32N 53°11' E 005°25'0 0.0
2016-Jul-20 18:32N 53°11' E 005°25'0 0.0
2016-Jul-20 17:32N 53°11' E 005°25'0 0.0
2016-Jul-20 16:32N 53°11' E 005°25'0 0.0
2016-Jul-20 15:32N 53°11' E 005°25'0 0.0
2016-Jul-20 14:32N 53°11' E 005°25'0 0.0
2016-Jul-20 13:32N 53°11' E 005°25'0 0.0
2016-Jul-20 12:32N 53°11' E 005°25'1 1.3
2016-Jul-20 11:33N 53°10' E 005°23'5 5.2
2016-Jul-20 10:32N 53°05' E 005°20'1 0.7
2016-Jul-20 09:31N 53°04' E 005°20'1 1.2
2016-Jul-20 08:33N 53°03' E 005°21'5 5.1
2016-Jul-20 07:30N 52°58' E 005°21'5 5.2
2016-Jul-20 06:34N 52°53' E 005°21'0 0.1
2016-Jul-20 05:31N 52°53' E 005°21'0 0.0
2016-Jul-20 04:28N 52°53' E 005°21'0 0.0
2016-Jul-20 03:32N 52°53' E 005°21'0 0.0
2016-Jul-20 02:33N 52°53' E 005°21'0 0.0
2016-Jul-20 01:30N 52°53' E 005°21'0 0.0
2016-Jul-20 00:33N 52°53' E 005°21'0 0.0
2016-Jul-19 23:31N 52°53' E 005°21'0 0.0
2016-Jul-19 22:31N 52°53' E 005°21'0 0.0
2016-Jul-19 21:28N 52°53' E 005°21'0 0.0
2016-Jul-19 20:31N 52°53' E 005°21'0 0.0
2016-Jul-19 19:31N 52°53' E 005°21'0 0.0
2016-Jul-19 18:31N 52°53' E 005°21'0 0.0
2016-Jul-19 17:31N 52°53' E 005°21'2 2.0
2016-Jul-19 16:33N 52°51' E 005°20'4 4.3
2016-Jul-19 15:33N 52°49' E 005°26'5 5.5
2016-Jul-19 14:33N 52°49' E 005°35'4 3.7
2016-Jul-19 13:33N 52°51' E 005°41'0 0.5
2016-Jul-19 12:33N 52°52' E 005°41'1 0.5
2016-Jul-19 11:31N 52°51' E 005°41'0 0.0
2016-Jul-19 10:16N 52°51' E 005°41'0 0.0
2016-Jul-19 09:25N 52°51' E 005°41'0 0.0
2016-Jul-19 08:10N 52°51' E 005°41'0 0.0
2016-Jul-19 07:25N 52°51' E 005°41'0 0.0
2016-Jul-19 04:25N 52°51' E 005°41'0 0.0
2016-Jul-19 03:31N 52°51' E 005°41'0 0.0
2016-Jul-19 02:31N 52°51' E 005°41'0 0.0
2016-Jul-19 01:31N 52°51' E 005°41'0 0.0
2016-Jul-19 00:31N 52°51' E 005°41'0 0.0
2016-Jul-18 23:28N 52°51' E 005°41'0 0.0
2016-Jul-18 22:31N 52°51' E 005°41'0 0.0
2016-Jul-18 21:22N 52°51' E 005°41'0 0.0
2016-Jul-18 19:19N 52°51' E 005°41'0 0.0
2016-Jul-18 18:22N 52°51' E 005°41'0 0.0
2016-Jul-18 17:22N 52°51' E 005°41'0 0.0
2016-Jul-18 16:34N 52°51' E 005°41'0 0.0
2016-Jul-18 15:34N 52°51' E 005°41'0 0.0
2016-Jul-18 14:34N 52°51' E 005°41'0 0.0
2016-Jul-18 13:34N 52°51' E 005°41'0 0.0
2016-Jul-18 12:22N 52°51' E 005°41'0 0.0
2016-Jul-18 09:27N 52°51' E 005°41'0 0.0
2016-Jul-18 08:33N 52°51' E 005°41'0 0.0
2016-Jul-18 07:18N 52°51' E 005°41'0 0.0
2016-Jul-18 06:24N 52°51' E 005°41'0 0.0
2016-Jul-18 05:27N 52°51' E 005°41'0 0.0
2016-Jul-18 04:27N 52°51' E 005°41'0 0.0
2016-Jul-18 02:27N 52°51' E 005°41'0 0.0
2016-Jul-18 00:12N 52°51' E 005°41'0 0.0
2016-Jul-17 23:33N 52°51' E 005°41'0 0.0
2016-Jul-17 22:33N 52°51' E 005°41'0 0.0
2016-Jul-17 21:27N 52°51' E 005°41'0 0.0
2016-Jul-17 19:27N 52°51' E 005°41'0 0.0
2016-Jul-17 16:27N 52°51' E 005°41'0 0.0
2016-Jul-17 13:21N 52°51' E 005°41'0 0.0
2016-Jul-17 11:33N 52°51' E 005°41'0 0.0
2016-Jul-17 10:15N 52°51' E 005°41'0 0.0
2016-Jul-17 09:06N 52°51' E 005°41'0 0.0
2016-Jul-17 08:09N 52°51' E 005°41'0 0.0
2016-Jul-17 04:15N 52°51' E 005°41'0 0.0
2016-Jul-16 23:27N 52°51' E 005°41'0 0.0
2016-Jul-16 18:27N 52°51' E 005°41'0 0.0
2016-Jul-16 17:15N 52°51' E 005°41'0 0.0
2016-Jul-16 15:27N 52°51' E 005°41'0 0.0
2016-Jul-16 14:33N 52°51' E 005°41'0 0.0
2016-Jul-16 13:21N 52°51' E 005°41'0 0.0
2016-Jul-16 12:27N 52°51' E 005°41'0 0.0
2016-Jul-16 11:33N 52°51' E 005°41'0 0.0
2016-Jul-16 10:33N 52°51' E 005°41'0 0.0
2016-Jul-16 09:15N 52°51' E 005°41'0 0.0
2016-Jul-16 06:21N 52°51' E 005°41'0 0.0
2016-Jul-16 04:33N 52°51' E 005°41'0 0.0
2016-Jul-16 03:03N 52°51' E 005°41'0 0.0
2016-Jul-16 02:33N 52°51' E 005°41'0 0.0
2016-Jul-16 01:27N 52°51' E 005°41'0 0.0
2016-Jul-16 00:27N 52°51' E 005°41'0 0.0
2016-Jul-15 22:09N 52°51' E 005°41'0 0.0
2016-Jul-15 20:33N 52°51' E 005°41'0 0.0
2016-Jul-15 18:27N 52°51' E 005°41'0 0.0
2016-Jul-15 17:15N 52°51' E 005°41'0 0.0
2016-Jul-15 16:09N 52°51' E 005°41'0 0.0
2016-Jul-15 15:09N 52°51' E 005°41'0 0.0
2016-Jul-15 14:33N 52°51' E 005°41'0 0.0
2016-Jul-15 13:30N 52°51' E 005°41'0 0.0
2016-Jul-15 12:21N 52°51' E 005°41'0 0.0
2016-Jul-15 10:27N 52°51' E 005°41'0 0.0
2016-Jul-15 09:27N 52°51' E 005°41'0 0.0
2016-Jul-15 08:27N 52°51' E 005°41'0 0.0
2016-Jul-15 05:33N 52°51' E 005°41'0 0.0
2016-Jul-15 04:27N 52°51' E 005°41'0 0.0
2016-Jul-15 03:33N 52°51' E 005°41'0 0.0
2016-Jul-15 00:21N 52°51' E 005°41'0 0.0
2016-Jul-14 23:33N 52°51' E 005°41'0 0.0
2016-Jul-14 22:33N 52°51' E 005°41'0 0.0
2016-Jul-14 19:21N 52°51' E 005°41'0 0.0
2016-Jul-14 18:27N 52°51' E 005°41'0 0.0
2016-Jul-14 16:12N 52°51' E 005°41'  

Dump ship's entire track history